sensor_id;sensor_type;location;lat;lon;timestamp;temperature;humidity
25991;DHT22;13779;-33.886;151.198;2023-05-10T00:01:36;15.80;99.90
25991;DHT22;13779;-33.886;151.198;2023-05-10T00:04:07;15.90;99.90
25991;DHT22;13779;-33.886;151.198;2023-05-10T00:06:37;15.90;99.90
25991;DHT22;13779;-33.886;151.198;2023-05-10T00:09:08;16.10;99.90
25991;DHT22;13779;-33.886;151.198;2023-05-10T00:11:38;16.20;99.90
25991;DHT22;13779;-33.886;151.198;2023-05-10T00:14:09;16.20;99.90
25991;DHT22;13779;-33.886;151.198;2023-05-10T00:16:39;16.20;99.90
25991;DHT22;13779;-33.886;151.198;2023-05-10T00:19:10;16.30;99.90
25991;DHT22;13779;-33.886;151.198;2023-05-10T00:21:40;16.50;99.90
25991;DHT22;13779;-33.886;151.198;2023-05-10T00:24:11;16.50;99.90
25991;DHT22;13779;-33.886;151.198;2023-05-10T00:26:41;16.60;99.90
25991;DHT22;13779;-33.886;151.198;2023-05-10T00:29:12;16.60;99.90
25991;DHT22;13779;-33.886;151.198;2023-05-10T00:31:42;16.70;99.90
25991;DHT22;13779;-33.886;151.198;2023-05-10T00:34:13;16.80;99.90
25991;DHT22;13779;-33.886;151.198;2023-05-10T00:36:44;16.90;99.90
25991;DHT22;13779;-33.886;151.198;2023-05-10T00:39:15;16.90;99.90
25991;DHT22;13779;-33.886;151.198;2023-05-10T00:41:45;17.00;99.90
25991;DHT22;13779;-33.886;151.198;2023-05-10T00:44:15;17.10;99.90
25991;DHT22;13779;-33.886;151.198;2023-05-10T00:46:46;17.20;99.90
25991;DHT22;13779;-33.886;151.198;2023-05-10T00:49:17;17.20;99.90
25991;DHT22;13779;-33.886;151.198;2023-05-10T00:51:47;17.30;99.90
25991;DHT22;13779;-33.886;151.198;2023-05-10T00:54:18;17.40;99.90
25991;DHT22;13779;-33.886;151.198;2023-05-10T00:56:48;17.40;99.90
25991;DHT22;13779;-33.886;151.198;2023-05-10T00:59:18;17.40;99.90
25991;DHT22;13779;-33.886;151.198;2023-05-10T01:01:49;17.50;99.90
25991;DHT22;13779;-33.886;151.198;2023-05-10T01:04:20;17.50;99.90
25991;DHT22;13779;-33.886;151.198;2023-05-10T01:06:54;17.60;99.90
25991;DHT22;13779;-33.886;151.198;2023-05-10T01:09:26;17.50;99.90
25991;DHT22;13779;-33.886;151.198;2023-05-10T01:11:57;17.50;99.90
25991;DHT22;13779;-33.886;151.198;2023-05-10T01:14:27;17.50;99.90
25991;DHT22;13779;-33.886;151.198;2023-05-10T01:16:57;17.50;99.90
25991;DHT22;13779;-33.886;151.198;2023-05-10T01:19:29;17.50;99.90
25991;DHT22;13779;-33.886;151.198;2023-05-10T01:22:22;17.60;99.90
25991;DHT22;13779;-33.886;151.198;2023-05-10T01:30:58;17.60;99.90
25991;DHT22;13779;-33.886;151.198;2023-05-10T01:33:35;17.60;99.90
25991;DHT22;13779;-33.886;151.198;2023-05-10T01:36:43;17.70;99.90
25991;DHT22;13779;-33.886;151.198;2023-05-10T01:42:11;17.70;99.90
25991;DHT22;13779;-33.886;151.198;2023-05-10T01:44:53;17.70;99.90
25991;DHT22;13779;-33.886;151.198;2023-05-10T01:47:44;17.70;99.90
25991;DHT22;13779;-33.886;151.198;2023-05-10T01:50:19;17.80;99.90
25991;DHT22;13779;-33.886;151.198;2023-05-10T01:52:54;17.70;99.90
25991;DHT22;13779;-33.886;151.198;2023-05-10T01:55:32;17.70;99.90
25991;DHT22;13779;-33.886;151.198;2023-05-10T01:58:10;17.70;99.90
25991;DHT22;13779;-33.886;151.198;2023-05-10T02:00:43;17.70;99.90
25991;DHT22;13779;-33.886;151.198;2023-05-10T02:03:15;17.70;99.90
25991;DHT22;13779;-33.886;151.198;2023-05-10T02:05:48;17.70;99.90
25991;DHT22;13779;-33.886;151.198;2023-05-10T02:08:19;17.70;99.90
25991;DHT22;13779;-33.886;151.198;2023-05-10T02:10:52;17.70;99.90
25991;DHT22;13779;-33.886;151.198;2023-05-10T02:13:24;17.70;99.90
25991;DHT22;13779;-33.886;151.198;2023-05-10T02:15:55;17.80;99.90
25991;DHT22;13779;-33.886;151.198;2023-05-10T02:18:27;17.80;99.90
25991;DHT22;13779;-33.886;151.198;2023-05-10T02:20:58;17.80;99.90
25991;DHT22;13779;-33.886;151.198;2023-05-10T02:23:30;17.80;99.90
25991;DHT22;13779;-33.886;151.198;2023-05-10T02:26:02;17.80;99.90
25991;DHT22;13779;-33.886;151.198;2023-05-10T02:28:33;17.90;99.90
25991;DHT22;13779;-33.886;151.198;2023-05-10T02:31:05;17.80;99.90
25991;DHT22;13779;-33.886;151.198;2023-05-10T02:33:41;17.90;99.90
25991;DHT22;13779;-33.886;151.198;2023-05-10T02:36:13;17.90;99.90
25991;DHT22;13779;-33.886;151.198;2023-05-10T02:38:43;17.90;99.90
25991;DHT22;13779;-33.886;151.198;2023-05-10T02:41:14;17.90;99.90
25991;DHT22;13779;-33.886;151.198;2023-05-10T02:43:46;17.90;99.90
25991;DHT22;13779;-33.886;151.198;2023-05-10T02:46:20;17.90;99.90
25991;DHT22;13779;-33.886;151.198;2023-05-10T02:48:50;17.90;99.90
25991;DHT22;13779;-33.886;151.198;2023-05-10T02:51:25;17.90;99.90
25991;DHT22;13779;-33.886;151.198;2023-05-10T02:53:57;17.80;99.90
25991;DHT22;13779;-33.886;151.198;2023-05-10T02:56:34;17.80;99.90
25991;DHT22;13779;-33.886;151.198;2023-05-10T02:59:05;17.90;99.90
25991;DHT22;13779;-33.886;151.198;2023-05-10T03:01:35;17.90;99.90
25991;DHT22;13779;-33.886;151.198;2023-05-10T03:04:06;17.90;99.90
25991;DHT22;13779;-33.886;151.198;2023-05-10T03:06:36;18.00;99.90
25991;DHT22;13779;-33.886;151.198;2023-05-10T03:09:06;18.10;99.90
25991;DHT22;13779;-33.886;151.198;2023-05-10T03:18:01;18.40;99.90
25991;DHT22;13779;-33.886;151.198;2023-05-10T03:20:38;18.50;99.90
25991;DHT22;13779;-33.886;151.198;2023-05-10T03:23:34;18.50;99.90
25991;DHT22;13779;-33.886;151.198;2023-05-10T03:26:07;18.40;99.90
25991;DHT22;13779;-33.886;151.198;2023-05-10T03:28:38;18.40;99.90
25991;DHT22;13779;-33.886;151.198;2023-05-10T03:31:08;18.40;99.90
25991;DHT22;13779;-33.886;151.198;2023-05-10T03:33:50;18.40;99.90
25991;DHT22;13779;-33.886;151.198;2023-05-10T03:36:20;18.30;99.90
25991;DHT22;13779;-33.886;151.198;2023-05-10T03:38:50;18.40;99.90
25991;DHT22;13779;-33.886;151.198;2023-05-10T03:41:20;18.40;99.90
25991;DHT22;13779;-33.886;151.198;2023-05-10T03:43:51;18.40;99.90
25991;DHT22;13779;-33.886;151.198;2023-05-10T03:46:21;18.40;99.90
25991;DHT22;13779;-33.886;151.198;2023-05-10T03:48:51;18.50;99.90
25991;DHT22;13779;-33.886;151.198;2023-05-10T03:51:21;18.50;99.90
25991;DHT22;13779;-33.886;151.198;2023-05-10T03:53:51;18.50;99.90
25991;DHT22;13779;-33.886;151.198;2023-05-10T03:56:21;18.50;99.90
25991;DHT22;13779;-33.886;151.198;2023-05-10T03:58:51;18.50;99.90
25991;DHT22;13779;-33.886;151.198;2023-05-10T04:01:21;18.40;99.90
25991;DHT22;13779;-33.886;151.198;2023-05-10T04:03:52;18.30;99.90
25991;DHT22;13779;-33.886;151.198;2023-05-10T04:06:22;18.20;99.90
25991;DHT22;13779;-33.886;151.198;2023-05-10T04:08:53;18.20;99.90
25991;DHT22;13779;-33.886;151.198;2023-05-10T04:11:24;18.20;99.90
25991;DHT22;13779;-33.886;151.198;2023-05-10T04:13:54;18.20;99.90
25991;DHT22;13779;-33.886;151.198;2023-05-10T04:16:25;18.20;99.90
25991;DHT22;13779;-33.886;151.198;2023-05-10T04:18:55;18.10;99.90
25991;DHT22;13779;-33.886;151.198;2023-05-10T04:21:27;18.10;99.90
25991;DHT22;13779;-33.886;151.198;2023-05-10T04:23:57;18.10;99.90
25991;DHT22;13779;-33.886;151.198;2023-05-10T04:26:28;18.10;99.90
25991;DHT22;13779;-33.886;151.198;2023-05-10T04:28:59;18.20;99.90
25991;DHT22;13779;-33.886;151.198;2023-05-10T04:31:29;18.30;99.90
25991;DHT22;13779;-33.886;151.198;2023-05-10T04:34:00;18.40;99.90
25991;DHT22;13779;-33.886;151.198;2023-05-10T04:36:30;18.50;99.90
25991;DHT22;13779;-33.886;151.198;2023-05-10T04:39:03;18.50;99.90
25991;DHT22;13779;-33.886;151.198;2023-05-10T04:41:34;18.50;99.90
25991;DHT22;13779;-33.886;151.198;2023-05-10T04:44:05;18.40;99.90
25991;DHT22;13779;-33.886;151.198;2023-05-10T04:46:35;18.30;99.90
25991;DHT22;13779;-33.886;151.198;2023-05-10T04:49:06;18.30;99.90
25991;DHT22;13779;-33.886;151.198;2023-05-10T04:51:37;18.20;99.90
25991;DHT22;13779;-33.886;151.198;2023-05-10T04:54:07;18.20;99.90
25991;DHT22;13779;-33.886;151.198;2023-05-10T04:56:38;18.20;99.90
25991;DHT22;13779;-33.886;151.198;2023-05-10T04:59:09;18.10;99.90
25991;DHT22;13779;-33.886;151.198;2023-05-10T05:01:40;18.10;99.90
25991;DHT22;13779;-33.886;151.198;2023-05-10T05:04:11;18.00;99.90
25991;DHT22;13779;-33.886;151.198;2023-05-10T05:06:41;18.00;99.90
25991;DHT22;13779;-33.886;151.198;2023-05-10T05:09:11;18.00;99.90
25991;DHT22;13779;-33.886;151.198;2023-05-10T05:11:41;18.00;99.90
25991;DHT22;13779;-33.886;151.198;2023-05-10T05:14:11;18.10;99.90
25991;DHT22;13779;-33.886;151.198;2023-05-10T05:16:42;18.00;99.90
25991;DHT22;13779;-33.886;151.198;2023-05-10T05:19:12;18.00;99.90
25991;DHT22;13779;-33.886;151.198;2023-05-10T05:21:42;17.90;99.90
25991;DHT22;13779;-33.886;151.198;2023-05-10T05:24:12;17.90;99.90
25991;DHT22;13779;-33.886;151.198;2023-05-10T05:26:42;17.80;99.90
25991;DHT22;13779;-33.886;151.198;2023-05-10T05:29:12;17.70;99.90
25991;DHT22;13779;-33.886;151.198;2023-05-10T05:31:43;17.70;99.90
25991;DHT22;13779;-33.886;151.198;2023-05-10T05:34:14;17.60;99.90
25991;DHT22;13779;-33.886;151.198;2023-05-10T05:36:44;17.60;99.90
25991;DHT22;13779;-33.886;151.198;2023-05-10T05:39:14;17.60;99.90
25991;DHT22;13779;-33.886;151.198;2023-05-10T05:41:44;17.60;99.90
25991;DHT22;13779;-33.886;151.198;2023-05-10T05:44:15;17.60;99.90
25991;DHT22;13779;-33.886;151.198;2023-05-10T05:46:45;17.60;99.90
25991;DHT22;13779;-33.886;151.198;2023-05-10T05:49:15;17.60;99.90
25991;DHT22;13779;-33.886;151.198;2023-05-10T05:51:45;17.50;99.90
25991;DHT22;13779;-33.886;151.198;2023-05-10T05:54:16;17.50;99.90
25991;DHT22;13779;-33.886;151.198;2023-05-10T05:56:47;17.50;99.90
25991;DHT22;13779;-33.886;151.198;2023-05-10T05:59:17;17.50;99.90
25991;DHT22;13779;-33.886;151.198;2023-05-10T06:01:47;17.50;99.90
25991;DHT22;13779;-33.886;151.198;2023-05-10T06:04:18;17.40;99.90
25991;DHT22;13779;-33.886;151.198;2023-05-10T06:06:48;17.40;99.90
25991;DHT22;13779;-33.886;151.198;2023-05-10T06:09:18;17.40;99.90
25991;DHT22;13779;-33.886;151.198;2023-05-10T06:11:48;17.30;99.90
25991;DHT22;13779;-33.886;151.198;2023-05-10T06:14:20;17.30;99.90
25991;DHT22;13779;-33.886;151.198;2023-05-10T06:16:51;17.30;99.90
25991;DHT22;13779;-33.886;151.198;2023-05-10T06:19:21;17.30;99.90
25991;DHT22;13779;-33.886;151.198;2023-05-10T06:21:51;17.30;99.90
25991;DHT22;13779;-33.886;151.198;2023-05-10T06:24:21;17.30;99.90
25991;DHT22;13779;-33.886;151.198;2023-05-10T06:26:51;17.30;99.90
25991;DHT22;13779;-33.886;151.198;2023-05-10T06:29:21;17.30;99.90
25991;DHT22;13779;-33.886;151.198;2023-05-10T06:31:51;17.20;99.90
25991;DHT22;13779;-33.886;151.198;2023-05-10T06:34:22;17.20;99.90
25991;DHT22;13779;-33.886;151.198;2023-05-10T06:36:52;17.20;99.90
25991;DHT22;13779;-33.886;151.198;2023-05-10T06:39:22;17.20;99.90
25991;DHT22;13779;-33.886;151.198;2023-05-10T06:41:52;17.20;99.90
25991;DHT22;13779;-33.886;151.198;2023-05-10T06:44:23;17.20;99.90
25991;DHT22;13779;-33.886;151.198;2023-05-10T06:46:54;17.20;99.90
25991;DHT22;13779;-33.886;151.198;2023-05-10T06:49:25;17.20;99.90
25991;DHT22;13779;-33.886;151.198;2023-05-10T06:51:56;17.20;99.90
25991;DHT22;13779;-33.886;151.198;2023-05-10T06:54:26;17.10;99.90
25991;DHT22;13779;-33.886;151.198;2023-05-10T06:56:59;17.10;99.90
25991;DHT22;13779;-33.886;151.198;2023-05-10T06:59:30;17.00;99.90
25991;DHT22;13779;-33.886;151.198;2023-05-10T07:02:01;17.00;99.90
25991;DHT22;13779;-33.886;151.198;2023-05-10T07:04:31;17.00;99.90
25991;DHT22;13779;-33.886;151.198;2023-05-10T07:07:01;17.00;99.90
25991;DHT22;13779;-33.886;151.198;2023-05-10T07:09:32;17.00;99.90
25991;DHT22;13779;-33.886;151.198;2023-05-10T07:12:02;17.00;99.90
25991;DHT22;13779;-33.886;151.198;2023-05-10T07:14:33;16.90;99.90
25991;DHT22;13779;-33.886;151.198;2023-05-10T07:17:03;16.90;99.90
25991;DHT22;13779;-33.886;151.198;2023-05-10T07:19:33;16.90;99.90
25991;DHT22;13779;-33.886;151.198;2023-05-10T07:22:03;16.80;99.90
25991;DHT22;13779;-33.886;151.198;2023-05-10T07:24:35;16.80;99.90
25991;DHT22;13779;-33.886;151.198;2023-05-10T07:27:05;16.80;99.90
25991;DHT22;13779;-33.886;151.198;2023-05-10T07:29:36;16.80;99.90
25991;DHT22;13779;-33.886;151.198;2023-05-10T07:32:06;16.80;99.90
25991;DHT22;13779;-33.886;151.198;2023-05-10T07:34:37;16.80;99.90
25991;DHT22;13779;-33.886;151.198;2023-05-10T07:37:07;16.80;99.90
25991;DHT22;13779;-33.886;151.198;2023-05-10T07:39:37;16.70;99.90
25991;DHT22;13779;-33.886;151.198;2023-05-10T07:42:07;16.70;99.90
25991;DHT22;13779;-33.886;151.198;2023-05-10T07:44:37;16.70;99.90
25991;DHT22;13779;-33.886;151.198;2023-05-10T07:47:08;16.70;99.90
25991;DHT22;13779;-33.886;151.198;2023-05-10T07:49:38;16.70;99.90
25991;DHT22;13779;-33.886;151.198;2023-05-10T07:52:08;16.70;99.90
25991;DHT22;13779;-33.886;151.198;2023-05-10T07:54:38;16.70;99.90
25991;DHT22;13779;-33.886;151.198;2023-05-10T07:57:08;16.60;99.90
25991;DHT22;13779;-33.886;151.198;2023-05-10T07:59:38;16.60;99.90
25991;DHT22;13779;-33.886;151.198;2023-05-10T08:02:08;16.70;99.90
25991;DHT22;13779;-33.886;151.198;2023-05-10T08:04:38;16.60;99.90
25991;DHT22;13779;-33.886;151.198;2023-05-10T08:07:09;16.60;99.90
25991;DHT22;13779;-33.886;151.198;2023-05-10T08:09:39;16.60;99.90
25991;DHT22;13779;-33.886;151.198;2023-05-10T08:12:10;16.60;99.90
25991;DHT22;13779;-33.886;151.198;2023-05-10T08:14:40;16.60;99.90
25991;DHT22;13779;-33.886;151.198;2023-05-10T08:17:11;16.60;99.90
25991;DHT22;13779;-33.886;151.198;2023-05-10T08:19:41;16.50;99.90
25991;DHT22;13779;-33.886;151.198;2023-05-10T08:22:11;16.50;99.90
25991;DHT22;13779;-33.886;151.198;2023-05-10T08:24:41;16.50;99.90
25991;DHT22;13779;-33.886;151.198;2023-05-10T08:27:12;16.50;99.90
25991;DHT22;13779;-33.886;151.198;2023-05-10T08:29:42;16.50;99.90
25991;DHT22;13779;-33.886;151.198;2023-05-10T08:32:17;16.50;99.90
25991;DHT22;13779;-33.886;151.198;2023-05-10T08:34:47;16.50;99.90
25991;DHT22;13779;-33.886;151.198;2023-05-10T08:37:17;16.50;99.90
25991;DHT22;13779;-33.886;151.198;2023-05-10T08:39:47;16.50;99.90
25991;DHT22;13779;-33.886;151.198;2023-05-10T08:42:23;16.50;99.90
25991;DHT22;13779;-33.886;151.198;2023-05-10T08:44:55;16.50;99.90
25991;DHT22;13779;-33.886;151.198;2023-05-10T08:47:26;16.40;99.90
25991;DHT22;13779;-33.886;151.198;2023-05-10T08:49:57;16.40;99.90
25991;DHT22;13779;-33.886;151.198;2023-05-10T08:52:29;16.40;99.90
25991;DHT22;13779;-33.886;151.198;2023-05-10T08:54:59;16.40;99.90
25991;DHT22;13779;-33.886;151.198;2023-05-10T08:57:29;16.40;99.90
25991;DHT22;13779;-33.886;151.198;2023-05-10T09:00:01;16.30;99.90
25991;DHT22;13779;-33.886;151.198;2023-05-10T09:02:31;16.30;99.90
25991;DHT22;13779;-33.886;151.198;2023-05-10T09:05:02;16.30;99.90
25991;DHT22;13779;-33.886;151.198;2023-05-10T09:07:34;16.20;99.90
25991;DHT22;13779;-33.886;151.198;2023-05-10T09:10:05;16.30;99.90
25991;DHT22;13779;-33.886;151.198;2023-05-10T09:12:35;16.20;99.90
25991;DHT22;13779;-33.886;151.198;2023-05-10T09:15:06;16.20;99.90
25991;DHT22;13779;-33.886;151.198;2023-05-10T09:17:37;16.20;99.90
25991;DHT22;13779;-33.886;151.198;2023-05-10T09:20:08;16.10;99.90
25991;DHT22;13779;-33.886;151.198;2023-05-10T09:22:39;16.10;99.90
25991;DHT22;13779;-33.886;151.198;2023-05-10T09:25:11;16.10;99.90
25991;DHT22;13779;-33.886;151.198;2023-05-10T09:27:46;16.10;99.90
25991;DHT22;13779;-33.886;151.198;2023-05-10T09:30:23;16.00;99.90
25991;DHT22;13779;-33.886;151.198;2023-05-10T09:32:54;16.00;99.90
25991;DHT22;13779;-33.886;151.198;2023-05-10T09:35:27;16.00;99.90
25991;DHT22;13779;-33.886;151.198;2023-05-10T09:38:00;15.90;99.90
25991;DHT22;13779;-33.886;151.198;2023-05-10T09:40:31;15.90;99.90
25991;DHT22;13779;-33.886;151.198;2023-05-10T09:43:08;15.90;99.90
25991;DHT22;13779;-33.886;151.198;2023-05-10T09:45:41;15.90;99.90
25991;DHT22;13779;-33.886;151.198;2023-05-10T09:48:11;15.90;99.90
25991;DHT22;13779;-33.886;151.198;2023-05-10T09:50:42;15.80;99.90
25991;DHT22;13779;-33.886;151.198;2023-05-10T09:53:15;15.90;99.90
25991;DHT22;13779;-33.886;151.198;2023-05-10T09:55:46;15.80;99.90
25991;DHT22;13779;-33.886;151.198;2023-05-10T09:58:18;15.80;99.90
25991;DHT22;13779;-33.886;151.198;2023-05-10T10:00:48;15.70;99.90
25991;DHT22;13779;-33.886;151.198;2023-05-10T10:03:22;15.70;99.90
25991;DHT22;13779;-33.886;151.198;2023-05-10T10:05:55;15.70;99.90
25991;DHT22;13779;-33.886;151.198;2023-05-10T10:08:26;15.70;99.90
25991;DHT22;13779;-33.886;151.198;2023-05-10T10:10:57;15.70;99.90
25991;DHT22;13779;-33.886;151.198;2023-05-10T10:13:28;15.70;99.90
25991;DHT22;13779;-33.886;151.198;2023-05-10T10:15:59;15.80;99.90
25991;DHT22;13779;-33.886;151.198;2023-05-10T10:18:31;15.70;99.90
25991;DHT22;13779;-33.886;151.198;2023-05-10T10:21:02;15.60;99.90
25991;DHT22;13779;-33.886;151.198;2023-05-10T10:23:32;15.60;99.90
25991;DHT22;13779;-33.886;151.198;2023-05-10T10:26:06;15.50;99.90
25991;DHT22;13779;-33.886;151.198;2023-05-10T10:33:54;15.40;99.90
25991;DHT22;13779;-33.886;151.198;2023-05-10T10:36:26;15.40;99.90
25991;DHT22;13779;-33.886;151.198;2023-05-10T10:38:59;15.40;99.90
25991;DHT22;13779;-33.886;151.198;2023-05-10T10:41:32;15.40;99.90
25991;DHT22;13779;-33.886;151.198;2023-05-10T10:50:04;15.20;99.90
25991;DHT22;13779;-33.886;151.198;2023-05-10T10:52:39;15.20;99.90
25991;DHT22;13779;-33.886;151.198;2023-05-10T10:55:16;15.20;99.90
25991;DHT22;13779;-33.886;151.198;2023-05-10T10:57:56;15.20;99.90
25991;DHT22;13779;-33.886;151.198;2023-05-10T11:00:36;15.20;99.90
25991;DHT22;13779;-33.886;151.198;2023-05-10T11:11:04;15.40;99.90
25991;DHT22;13779;-33.886;151.198;2023-05-10T11:13:47;15.40;99.90
25991;DHT22;13779;-33.886;151.198;2023-05-10T11:16:22;15.30;99.90
25991;DHT22;13779;-33.886;151.198;2023-05-10T11:19:11;15.30;99.90
25991;DHT22;13779;-33.886;151.198;2023-05-10T11:24:35;15.40;99.90
25991;DHT22;13779;-33.886;151.198;2023-05-10T11:27:10;15.30;99.90
25991;DHT22;13779;-33.886;151.198;2023-05-10T11:29:44;15.20;99.90
25991;DHT22;13779;-33.886;151.198;2023-05-10T11:32:15;15.20;99.90
25991;DHT22;13779;-33.886;151.198;2023-05-10T11:34:48;15.20;99.90
25991;DHT22;13779;-33.886;151.198;2023-05-10T11:37:19;15.10;99.90
25991;DHT22;13779;-33.886;151.198;2023-05-10T11:39:49;15.20;99.90
25991;DHT22;13779;-33.886;151.198;2023-05-10T11:42:20;15.10;99.90
25991;DHT22;13779;-33.886;151.198;2023-05-10T11:44:51;15.10;99.90
25991;DHT22;13779;-33.886;151.198;2023-05-10T11:47:21;15.10;99.90
25991;DHT22;13779;-33.886;151.198;2023-05-10T11:49:52;15.10;99.90
25991;DHT22;13779;-33.886;151.198;2023-05-10T11:52:23;15.10;99.90
25991;DHT22;13779;-33.886;151.198;2023-05-10T11:54:54;15.10;99.90
25991;DHT22;13779;-33.886;151.198;2023-05-10T11:57:27;15.10;99.90
25991;DHT22;13779;-33.886;151.198;2023-05-10T11:59:58;15.10;99.90
25991;DHT22;13779;-33.886;151.198;2023-05-10T12:02:29;15.10;99.90
25991;DHT22;13779;-33.886;151.198;2023-05-10T12:05:00;15.10;99.90
25991;DHT22;13779;-33.886;151.198;2023-05-10T12:07:31;15.10;99.90
25991;DHT22;13779;-33.886;151.198;2023-05-10T12:10:11;15.10;99.90
25991;DHT22;13779;-33.886;151.198;2023-05-10T12:12:48;15.10;99.90
25991;DHT22;13779;-33.886;151.198;2023-05-10T12:15:23;15.10;99.90
25991;DHT22;13779;-33.886;151.198;2023-05-10T12:17:54;15.10;99.90
25991;DHT22;13779;-33.886;151.198;2023-05-10T12:20:28;15.00;99.90
25991;DHT22;13779;-33.886;151.198;2023-05-10T12:22:59;15.00;99.90
25991;DHT22;13779;-33.886;151.198;2023-05-10T12:25:36;15.00;99.90
25991;DHT22;13779;-33.886;151.198;2023-05-10T12:28:09;14.90;99.90
25991;DHT22;13779;-33.886;151.198;2023-05-10T12:30:40;14.80;99.90
25991;DHT22;13779;-33.886;151.198;2023-05-10T12:33:12;14.70;99.90
25991;DHT22;13779;-33.886;151.198;2023-05-10T12:35:54;14.70;99.90
25991;DHT22;13779;-33.886;151.198;2023-05-10T12:40:57;14.60;99.90
25991;DHT22;13779;-33.886;151.198;2023-05-10T12:43:28;14.60;99.90
25991;DHT22;13779;-33.886;151.198;2023-05-10T12:45:58;14.60;99.90
25991;DHT22;13779;-33.886;151.198;2023-05-10T12:48:35;14.50;99.90
25991;DHT22;13779;-33.886;151.198;2023-05-10T12:51:07;14.50;99.90
25991;DHT22;13779;-33.886;151.198;2023-05-10T12:53:46;14.50;99.90
25991;DHT22;13779;-33.886;151.198;2023-05-10T12:56:17;14.50;99.90
25991;DHT22;13779;-33.886;151.198;2023-05-10T12:58:48;14.50;99.90
25991;DHT22;13779;-33.886;151.198;2023-05-10T13:01:18;14.50;99.90
25991;DHT22;13779;-33.886;151.198;2023-05-10T13:03:48;14.50;99.90
25991;DHT22;13779;-33.886;151.198;2023-05-10T13:06:19;14.50;99.90
25991;DHT22;13779;-33.886;151.198;2023-05-10T13:08:49;14.50;99.90
25991;DHT22;13779;-33.886;151.198;2023-05-10T13:11:21;14.40;99.90
25991;DHT22;13779;-33.886;151.198;2023-05-10T13:13:51;14.40;99.90
25991;DHT22;13779;-33.886;151.198;2023-05-10T13:16:21;14.40;99.90
25991;DHT22;13779;-33.886;151.198;2023-05-10T13:18:51;14.30;99.90
25991;DHT22;13779;-33.886;151.198;2023-05-10T13:21:21;14.40;99.90
25991;DHT22;13779;-33.886;151.198;2023-05-10T13:23:53;14.30;99.90
25991;DHT22;13779;-33.886;151.198;2023-05-10T13:26:24;14.40;99.90
25991;DHT22;13779;-33.886;151.198;2023-05-10T13:28:54;14.30;99.90
25991;DHT22;13779;-33.886;151.198;2023-05-10T13:31:24;14.30;99.90
25991;DHT22;13779;-33.886;151.198;2023-05-10T13:33:55;14.20;99.90
25991;DHT22;13779;-33.886;151.198;2023-05-10T13:36:25;14.20;99.90
25991;DHT22;13779;-33.886;151.198;2023-05-10T13:38:55;14.20;99.90
25991;DHT22;13779;-33.886;151.198;2023-05-10T13:41:25;14.10;99.90
25991;DHT22;13779;-33.886;151.198;2023-05-10T13:43:55;14.10;99.90
25991;DHT22;13779;-33.886;151.198;2023-05-10T13:46:26;14.10;99.90
25991;DHT22;13779;-33.886;151.198;2023-05-10T13:48:56;14.10;99.90
25991;DHT22;13779;-33.886;151.198;2023-05-10T13:51:26;14.00;99.90
25991;DHT22;13779;-33.886;151.198;2023-05-10T13:53:56;14.10;99.90
25991;DHT22;13779;-33.886;151.198;2023-05-10T13:56:26;14.10;99.90
25991;DHT22;13779;-33.886;151.198;2023-05-10T13:58:59;14.10;99.90
25991;DHT22;13779;-33.886;151.198;2023-05-10T14:01:29;14.10;99.90
25991;DHT22;13779;-33.886;151.198;2023-05-10T14:03:59;14.10;99.90
25991;DHT22;13779;-33.886;151.198;2023-05-10T14:06:30;14.20;99.90
25991;DHT22;13779;-33.886;151.198;2023-05-10T14:09:00;14.10;99.90
25991;DHT22;13779;-33.886;151.198;2023-05-10T14:11:31;14.10;99.90
25991;DHT22;13779;-33.886;151.198;2023-05-10T14:14:02;14.00;99.90
25991;DHT22;13779;-33.886;151.198;2023-05-10T14:16:35;14.00;99.90
25991;DHT22;13779;-33.886;151.198;2023-05-10T14:19:06;13.90;99.90
25991;DHT22;13779;-33.886;151.198;2023-05-10T14:21:37;14.00;99.90
25991;DHT22;13779;-33.886;151.198;2023-05-10T14:24:08;14.00;99.90
25991;DHT22;13779;-33.886;151.198;2023-05-10T14:26:38;14.00;99.90
25991;DHT22;13779;-33.886;151.198;2023-05-10T14:29:09;14.00;99.90
25991;DHT22;13779;-33.886;151.198;2023-05-10T14:31:40;13.90;99.90
25991;DHT22;13779;-33.886;151.198;2023-05-10T14:34:11;13.90;99.90
25991;DHT22;13779;-33.886;151.198;2023-05-10T14:36:42;13.80;99.90
25991;DHT22;13779;-33.886;151.198;2023-05-10T14:39:13;13.80;99.90
25991;DHT22;13779;-33.886;151.198;2023-05-10T14:41:47;13.80;99.90
25991;DHT22;13779;-33.886;151.198;2023-05-10T14:44:17;13.90;99.90
25991;DHT22;13779;-33.886;151.198;2023-05-10T14:46:48;13.90;99.90
25991;DHT22;13779;-33.886;151.198;2023-05-10T14:49:20;13.90;99.90
25991;DHT22;13779;-33.886;151.198;2023-05-10T14:51:52;13.90;99.90
25991;DHT22;13779;-33.886;151.198;2023-05-10T14:54:23;13.80;99.90
25991;DHT22;13779;-33.886;151.198;2023-05-10T14:56:53;13.80;99.90
25991;DHT22;13779;-33.886;151.198;2023-05-10T14:59:24;13.80;99.90
25991;DHT22;13779;-33.886;151.198;2023-05-10T15:01:54;13.80;99.90
25991;DHT22;13779;-33.886;151.198;2023-05-10T15:04:24;13.70;99.90
25991;DHT22;13779;-33.886;151.198;2023-05-10T15:06:55;13.80;99.90
25991;DHT22;13779;-33.886;151.198;2023-05-10T15:09:28;13.70;99.90
25991;DHT22;13779;-33.886;151.198;2023-05-10T15:11:59;13.60;99.90
25991;DHT22;13779;-33.886;151.198;2023-05-10T15:14:29;13.60;99.90
25991;DHT22;13779;-33.886;151.198;2023-05-10T15:17:00;13.50;99.90
25991;DHT22;13779;-33.886;151.198;2023-05-10T15:19:30;13.50;99.90
25991;DHT22;13779;-33.886;151.198;2023-05-10T15:22:03;13.50;99.90
25991;DHT22;13779;-33.886;151.198;2023-05-10T15:24:34;13.50;99.90
25991;DHT22;13779;-33.886;151.198;2023-05-10T15:27:04;13.40;99.90
25991;DHT22;13779;-33.886;151.198;2023-05-10T15:29:35;13.40;99.90
25991;DHT22;13779;-33.886;151.198;2023-05-10T15:32:05;13.40;99.90
25991;DHT22;13779;-33.886;151.198;2023-05-10T15:34:35;13.40;99.90
25991;DHT22;13779;-33.886;151.198;2023-05-10T15:37:05;13.40;99.90
25991;DHT22;13779;-33.886;151.198;2023-05-10T15:39:35;13.40;99.90
25991;DHT22;13779;-33.886;151.198;2023-05-10T15:42:05;13.30;99.90
25991;DHT22;13779;-33.886;151.198;2023-05-10T15:44:35;13.30;99.90
25991;DHT22;13779;-33.886;151.198;2023-05-10T15:47:07;13.30;99.90
25991;DHT22;13779;-33.886;151.198;2023-05-10T15:49:37;13.30;99.90
25991;DHT22;13779;-33.886;151.198;2023-05-10T15:52:07;13.30;99.90
25991;DHT22;13779;-33.886;151.198;2023-05-10T15:54:38;13.30;99.90